Huvudsida
METAR-TAF:

METAR-TAF

Flygplatser :

Rhodos internationella flygplats

Rhodos, Grekland

latitud: 36-24N, longitud: 028-05E, höjd: 4 m

Aktuellt väderrapport

Denna rapport gjordes för 17 minuter sedan, klockan 15:20 UTC
Vind 11 kt från väst/sydväst
Temperatur 24°C
Fuktighet 74%
Tryck 1012 hPa
Sikt: 9000 m

METAR: LGRP 201520Z 25011KT 9000 NSC 24/19 Q1012 NOSIG

Tid: 18:37 (15:37 UTC)

Väderprognos

Denna rapport gjordes för 4 timmar och 37 minuter sedan, klockan 11:00 UTC
Prognos gäller från 20 kl. 12 UTC till 21 kl. 12 UTC
Vind 12 kt från väst
Sikt: 9000 m
Få moln på en höjd av 1600 ft

TAF: LGRP 201100Z 2012/2112 28012KT 9000 FEW016

Aktuella väderrapporter och prognoser från 4000 flygplatser (METAR- och TAF-rapporter).

De tillgängliga stationerna syns som gula och röda prickar på kartan.

För musen över prickarna för att se namnen på stationerna.

Klicka sedan för att få väderrapporter och prognoser.

För att ändra kartan: Klicka på de gröna knapparna med ett svart kors på för att zooma in; den gröna knappen med ett streck på för att zooma ut; eller på de gröna pilarna för angränsande kartor.


METAR-TAF: